Okanogan, Washington
Current Conditions -  °F | °C
As of 9:53 AM on Thursday 18 Dec 2014 (Local Time) from KOMK Reporting Station
Haze Haze  
Wind Chill: 29°   Ceiling: 1800
Heat Index: 35°   Visibility: 6mi
Dew Point: 34°   Wind: 7mph
Humidity: 96%   Direction: 210°SSW
Pressure: 30.01"   Gusts: NA
Location:  48.36°N, 119.58°W
Report Text: KOMK 181753Z AUTO 21006KT 6SM BR SCT009 OVC018 02/01 A3001 RMK AO2 RAE1658 SLP176 P0000 60002 T00170011 10017 20006 51006
Loading
Personal Weather Stations






























Interactive Weather Map New forecast layout! Learn more

10-Day Weather Forecast

Advertisements
Track Severe Weather on mobile